Time;durP1;ratioP1;P1;durP2;ratioP2;P2;SDS_P1;SDS_P2;PMS_P1;PMS_P2;Temp;Humidity;BMP_temperature;BMP_pressure;BME280_temperature;BME280_humidity;BME280_pressure;Samples;Min_cycle;Max_cycle;Signal;HPM_P1;HPM_P2
2022/05/08 00:00:24;;;;;;;10.95;5.68;;;15.60;99.90;;;;;;4992064;28;20041;-66
2022/05/08 00:02:54;;;;;;;9.50;5.05;;;15.50;99.90;;;;;;4991724;28;20495;-66
2022/05/08 00:05:20;;;;;;;8.95;5.80;;;15.50;99.90;;;;;;4991716;28;20034;-66
2022/05/08 00:07:46;;;;;;;9.30;5.47;;;15.50;99.90;;;;;;4991356;28;20395;-66
2022/05/08 00:10:12;;;;;;;8.07;4.00;;;15.40;99.90;;;;;;4991691;28;20026;-65
2022/05/08 00:12:38;;;;;;;8.85;4.07;;;15.40;99.90;;;;;;4991538;28;20035;-66
2022/05/08 00:15:05;;;;;;;7.43;3.70;;;15.40;99.90;;;;;;4994180;28;20035;-65
2022/05/08 00:17:34;;;;;;;6.15;3.42;;;15.30;99.90;;;;;;4995914;28;20089;-65
2022/05/08 00:20:07;;;;;;;5.97;3.55;;;15.30;99.90;;;;;;4995535;28;20038;-65
2022/05/08 00:22:33;;;;;;;8.02;3.58;;;15.30;99.90;;;;;;4995585;28;20085;-66
2022/05/08 00:25:02;;;;;;;7.85;3.47;;;15.30;99.90;;;;;;4995492;28;20633;-66
2022/05/08 00:27:28;;;;;;;6.55;3.50;;;15.30;99.90;;;;;;4995215;28;20041;-67
2022/05/08 00:29:54;;;;;;;5.85;3.28;;;15.20;99.90;;;;;;4995282;28;20030;-65
2022/05/08 00:32:21;;;;;;;6.60;3.03;;;15.30;99.90;;;;;;4995331;28;20048;-67
2022/05/08 00:34:48;;;;;;;7.53;3.33;;;15.30;99.90;;;;;;4995283;28;20553;-65
2022/05/08 00:37:14;;;;;;;7.95;3.45;;;15.30;99.90;;;;;;4995048;28;20050;-65
2022/05/08 00:39:42;;;;;;;5.75;3.03;;;15.20;99.90;;;;;;4995293;28;20030;-66
2022/05/08 00:42:09;;;;;;;;;;;15.20;99.90;;;;;;4995520;28;20030;-66
2022/05/08 00:44:35;;;;;;;6.18;3.50;;;15.20;99.90;;;;;;4995212;28;19909;-65
2022/05/08 00:47:01;;;;;;;7.30;3.47;;;15.20;99.90;;;;;;4995164;28;20035;-65
2022/05/08 00:49:27;;;;;;;7.63;3.58;;;15.20;99.90;;;;;;4995196;28;20081;-66
2022/05/08 00:51:53;;;;;;;6.35;3.30;;;15.20;99.90;;;;;;4994735;28;20383;-66
2022/05/08 00:54:19;;;;;;;6.82;3.20;;;15.20;99.90;;;;;;4995287;28;20029;-65
2022/05/08 00:56:45;;;;;;;7.57;3.25;;;15.20;99.90;;;;;;4994725;28;20483;-65
2022/05/08 00:59:12;;;;;;;8.40;3.63;;;15.10;99.90;;;;;;4994906;28;20038;-65
2022/05/08 01:01:38;;;;;;;8.32;2.97;;;15.20;99.90;;;;;;4994684;28;20122;-66
2022/05/08 01:04:04;;;;;;;6.30;3.00;;;15.10;99.90;;;;;;4995059;28;20037;-66
2022/05/08 01:06:32;;;;;;;5.82;3.33;;;15.10;99.90;;;;;;4994449;28;20042;-66
2022/05/08 01:08:58;;;;;;;9.25;3.30;;;15.10;99.90;;;;;;4994740;28;20499;-67
2022/05/08 01:11:24;;;;;;;7.35;3.50;;;15.10;99.90;;;;;;4994685;28;20029;-66
2022/05/08 01:13:50;;;;;;;6.97;3.22;;;15.10;99.90;;;;;;4994514;28;20041;-66
2022/05/08 01:16:21;;;;;;;7.72;3.55;;;15.10;99.90;;;;;;4993390;28;20034;-65
2022/05/08 01:18:49;;;;;;;6.45;3.25;;;15.10;99.90;;;;;;4993129;28;20117;-65
2022/05/08 01:21:17;;;;;;;6.40;3.45;;;15.10;99.90;;;;;;4994588;28;20031;-65
2022/05/08 01:23:44;;;;;;;7.33;3.33;;;15.10;99.90;;;;;;4994478;28;20372;-67
2022/05/08 01:26:10;;;;;;;6.20;3.15;;;15.00;99.90;;;;;;4992727;28;20034;-66
2022/05/08 01:28:37;;;;;;;6.90;3.30;;;15.00;99.90;;;;;;4994347;28;20340;-66
2022/05/08 01:31:03;;;;;;;7.97;3.55;;;15.10;99.90;;;;;;4994564;28;20568;-66
2022/05/08 01:33:29;;;;;;;9.02;3.97;;;15.00;99.90;;;;;;4994276;28;20050;-66
2022/05/08 01:35:56;;;;;;;9.75;4.07;;;15.00;99.90;;;;;;4994358;28;20106;-65
2022/05/08 01:38:23;;;;;;;7.13;3.90;;;15.00;99.90;;;;;;4994341;28;20034;-66
2022/05/08 01:40:53;;;;;;;8.07;3.97;;;15.00;99.90;;;;;;4994623;28;20038;-66
2022/05/08 01:43:19;;;;;;;9.68;4.22;;;15.00;99.90;;;;;;4994642;28;20030;-66
2022/05/08 01:45:47;;;;;;;8.75;4.10;;;14.90;99.90;;;;;;4994831;28;20088;-66
2022/05/08 01:48:22;;;;;;;7.78;4.13;;;14.90;99.90;;;;;;4994059;28;20049;-66
2022/05/08 01:50:55;;;;;;;9.27;3.70;;;14.90;99.90;;;;;;4994101;28;20073;-66
2022/05/08 01:53:23;;;;;;;8.02;3.72;;;14.90;99.90;;;;;;4994057;28;20049;-66
2022/05/08 01:55:52;;;;;;;9.38;4.07;;;14.90;99.90;;;;;;4994023;28;20541;-66
2022/05/08 01:58:18;;;;;;;7.53;4.20;;;14.90;99.90;;;;;;4992632;28;20471;-66
2022/05/08 02:00:47;;;;;;;8.75;4.43;;;14.80;99.90;;;;;;4994059;28;20031;-66
2022/05/08 02:03:13;;;;;;;8.80;4.45;;;14.80;99.90;;;;;;4993900;28;20088;-66
2022/05/08 02:05:41;;;;;;;7.55;4.30;;;14.80;99.90;;;;;;4993841;28;20077;-66
2022/05/08 02:08:07;;;;;;;8.80;4.63;;;14.80;99.90;;;;;;4993503;28;20042;-66
2022/05/08 02:10:34;;;;;;;8.45;4.28;;;14.80;99.90;;;;;;4993671;28;20034;-66
2022/05/08 02:13:00;;;;;;;8.38;4.20;;;14.80;99.90;;;;;;4993623;28;20172;-67
2022/05/08 02:15:29;;;;;;;8.63;4.40;;;14.80;99.90;;;;;;4993783;28;20022;-66
2022/05/08 02:18:03;;;;;;;9.93;4.32;;;14.80;99.90;;;;;;4993504;28;20033;-66
2022/05/08 02:20:29;;;;;;;7.22;4.38;;;14.80;99.90;;;;;;4994067;28;20030;-67
2022/05/08 02:22:58;;;;;;;11.48;5.28;;;14.80;99.90;;;;;;4993474;28;20495;-67
2022/05/08 02:25:24;;;;;;;11.60;5.30;;;14.80;99.90;;;;;;4994097;28;20061;-65
2022/05/08 02:27:51;;;;;;;12.02;6.07;;;14.80;99.90;;;;;;4992091;28;20046;-65
2022/05/08 02:30:20;;;;;;;10.57;5.35;;;14.70;99.90;;;;;;4993660;28;20399;-65
2022/05/08 02:32:46;;;;;;;8.93;5.75;;;14.70;99.90;;;;;;4993212;28;20085;-65
2022/05/08 02:35:13;;;;;;;11.07;6.13;;;14.70;99.90;;;;;;4993330;28;20023;-66
2022/05/08 02:37:41;;;;;;;10.50;6.80;;;14.60;99.90;;;;;;4992296;28;20411;-65
2022/05/08 02:40:09;;;;;;;9.38;5.93;;;14.50;99.90;;;;;;4993340;28;20031;-66
2022/05/08 02:42:39;;;;;;;9.50;6.85;;;14.50;99.90;;;;;;4991771;28;20031;-65
2022/05/08 02:45:08;;;;;;;14.20;7.30;;;14.50;99.90;;;;;;4993105;28;20151;-66
2022/05/08 02:47:38;;;;;;;11.32;7.03;;;14.50;99.90;;;;;;4992759;28;20105;-65
2022/05/08 02:50:05;;;;;;;11.98;7.03;;;14.50;99.90;;;;;;4992820;28;20029;-66
2022/05/08 02:52:31;;;;;;;12.30;7.65;;;14.50;99.90;;;;;;4992631;28;20037;-65
2022/05/08 02:54:57;;;;;;;14.48;7.78;;;14.40;99.90;;;;;;4993103;28;20038;-66
2022/05/08 03:00:09;;;;;;;12.73;7.57;;;14.40;99.90;;;;;;4993154;28;20445;-66
2022/05/08 03:02:36;;;;;;;15.05;8.80;;;14.40;99.90;;;;;;4992551;28;20405;-66
2022/05/08 03:05:03;;;;;;;12.07;8.40;;;14.40;99.90;;;;;;4992941;28;20035;-66
2022/05/08 03:07:29;;;;;;;13.88;8.93;;;14.40;99.90;;;;;;4992436;28;20491;-66
2022/05/08 03:09:56;;;;;;;13.18;8.90;;;14.30;99.90;;;;;;4992508;28;20030;-66
2022/05/08 03:12:23;;;;;;;14.18;8.60;;;14.40;99.90;;;;;;4992513;28;20077;-66
2022/05/08 03:14:49;;;;;;;13.80;8.10;;;14.30;99.90;;;;;;4992511;28;20483;-65
2022/05/08 03:17:16;;;;;;;12.05;8.15;;;14.30;99.90;;;;;;4992144;28;20038;-66
2022/05/08 03:19:42;;;;;;;14.10;8.75;;;14.30;99.90;;;;;;4992502;28;20034;-66
2022/05/08 03:22:08;;;;;;;12.00;7.40;;;14.30;99.90;;;;;;4992252;28;20498;-66
2022/05/08 03:24:34;;;;;;;15.98;8.32;;;14.30;99.90;;;;;;4992247;28;20113;-66
2022/05/08 03:27:00;;;;;;;13.93;8.38;;;14.30;99.90;;;;;;4991983;28;20117;-66
2022/05/08 03:29:26;;;;;;;11.35;7.40;;;14.30;99.90;;;;;;4992114;28;20033;-66
2022/05/08 03:31:53;;;;;;;12.20;7.45;;;14.30;99.90;;;;;;4992147;28;20371;-66
2022/05/08 03:34:21;;;;;;;12.32;7.88;;;14.30;99.90;;;;;;4992047;28;20049;-66
2022/05/08 03:36:47;;;;;;;14.18;8.05;;;14.30;99.90;;;;;;4991858;28;20045;-66
2022/05/08 03:39:13;;;;;;;13.10;8.20;;;14.30;99.90;;;;;;4991878;28;20034;-66
2022/05/08 03:41:39;;;;;;;14.00;8.27;;;14.20;99.90;;;;;;4991911;28;20084;-65
2022/05/08 03:44:05;;;;;;;13.05;8.00;;;14.20;99.90;;;;;;4991860;28;20121;-66
2022/05/08 03:46:31;;;;;;;12.50;7.90;;;14.20;99.90;;;;;;4991521;28;20375;-66
2022/05/08 03:48:57;;;;;;;13.90;7.97;;;14.10;99.90;;;;;;4991948;28;20072;-67
2022/05/08 03:51:23;;;;;;;14.82;7.95;;;14.10;99.90;;;;;;4991509;28;20034;-66
2022/05/08 03:53:50;;;;;;;11.75;7.35;;;14.00;99.90;;;;;;4991975;28;20050;-65
2022/05/08 03:56:16;;;;;;;11.63;6.55;;;14.00;99.90;;;;;;4990613;28;20027;-66
2022/05/08 03:58:42;;;;;;;12.20;7.15;;;13.90;99.80;;;;;;4991588;28;20038;-65
2022/05/08 04:01:09;;;;;;;13.00;6.82;;;13.90;99.60;;;;;;4990539;28;20117;-66
2022/05/08 04:03:35;;;;;;;11.50;6.55;;;13.80;99.10;;;;;;4991473;28;20040;-66
2022/05/08 04:06:03;;;;;;;13.68;6.47;;;13.90;99.20;;;;;;4992156;28;20022;-66
2022/05/08 04:08:29;;;;;;;11.85;6.07;;;13.80;99.00;;;;;;4991398;28;20487;-65
2022/05/08 04:10:56;;;;;;;12.23;6.20;;;13.80;98.80;;;;;;4992085;28;20050;-65
2022/05/08 04:13:22;;;;;;;15.13;6.47;;;13.80;98.70;;;;;;4991508;28;20109;-65
2022/05/08 04:18:32;;;;;;;11.38;5.93;;;13.80;98.30;;;;;;4991269;28;20506;-65
2022/05/08 04:20:58;;;;;;;14.35;6.50;;;13.80;98.00;;;;;;4991513;28;20030;-65
2022/05/08 04:26:26;;;;;;;13.70;6.55;;;13.70;97.90;;;;;;4969344;28;20121;-65
2022/05/08 04:28:52;;;;;;;13.55;7.47;;;13.70;98.10;;;;;;4986942;28;20058;-66
2022/05/08 04:31:18;;;;;;;13.27;6.40;;;13.60;98.00;;;;;;4991343;28;20050;-66
2022/05/08 04:33:44;;;;;;;15.18;6.40;;;13.60;98.20;;;;;;4991394;28;20031;-66
2022/05/08 04:36:10;;;;;;;14.75;6.70;;;13.60;98.40;;;;;;4991278;28;20030;-66
2022/05/08 04:38:36;;;;;;;15.23;7.75;;;13.70;98.50;;;;;;4991358;28;20431;-66
2022/05/08 04:41:02;;;;;;;15.35;7.20;;;13.70;98.50;;;;;;4991302;28;20165;-66
2022/05/08 04:43:28;;;;;;;14.55;7.80;;;13.60;98.50;;;;;;4991183;28;20480;-67
2022/05/08 04:45:54;;;;;;;15.88;7.22;;;13.60;98.70;;;;;;4991562;28;20061;-66
2022/05/08 04:48:20;;;;;;;18.42;8.00;;;13.40;98.80;;;;;;4991034;28;20181;-65
2022/05/08 04:50:46;;;;;;;15.85;8.32;;;13.40;99.00;;;;;;4991021;28;20034;-65
2022/05/08 04:53:12;;;;;;;14.77;7.78;;;13.50;99.10;;;;;;4991042;28;20030;-65
2022/05/08 04:55:38;;;;;;;18.63;7.10;;;13.40;99.00;;;;;;4991224;28;20026;-65
2022/05/08 04:58:04;;;;;;;15.60;7.10;;;13.50;99.10;;;;;;4990914;28;20036;-66
2022/05/08 05:00:30;;;;;;;19.65;8.65;;;13.50;99.10;;;;;;4992711;28;20038;-65
2022/05/08 05:02:56;;;;;;;18.25;8.10;;;13.50;99.20;;;;;;4994837;28;20026;-65
2022/05/08 05:05:22;;;;;;;19.52;8.93;;;13.50;99.20;;;;;;4994731;28;20034;-67
2022/05/08 05:07:48;;;;;;;18.48;9.05;;;13.50;99.20;;;;;;4994637;28;20034;-66
2022/05/08 05:10:14;;;;;;;20.60;9.43;;;13.50;99.30;;;;;;4994588;28;20472;-66
2022/05/08 05:12:40;;;;;;;16.85;8.77;;;13.60;99.40;;;;;;4994599;28;20541;-66
2022/05/08 05:15:07;;;;;;;19.50;8.90;;;13.50;99.50;;;;;;4994524;28;20023;-66
2022/05/08 05:17:33;;;;;;;22.23;9.40;;;13.40;99.50;;;;;;4994717;28;20042;-65
2022/05/08 05:19:59;;;;;;;20.10;9.43;;;13.40;99.70;;;;;;4994365;28;20614;-66
2022/05/08 05:22:25;;;;;;;20.33;9.38;;;13.50;99.70;;;;;;4994231;28;20121;-66
2022/05/08 05:24:51;;;;;;;15.38;8.40;;;13.40;99.70;;;;;;4994378;28;20026;-66
2022/05/08 05:27:17;;;;;;;18.00;9.13;;;13.50;99.70;;;;;;4994098;28;20026;-66
2022/05/08 05:29:44;;;;;;;22.67;9.10;;;13.40;99.60;;;;;;4994385;28;20125;-66
2022/05/08 05:32:09;;;;;;;19.98;9.15;;;13.40;99.60;;;;;;4994292;28;20121;-66
2022/05/08 05:34:35;;;;;;;20.10;8.95;;;13.40;99.70;;;;;;4994145;28;20170;-66
2022/05/08 05:37:01;;;;;;;24.27;9.40;;;13.40;99.80;;;;;;4993967;28;20031;-66
2022/05/08 05:39:27;;;;;;;20.77;9.00;;;13.40;99.50;;;;;;4994071;28;20225;-65
2022/05/08 05:41:53;;;;;;;16.67;8.23;;;13.40;99.50;;;;;;4994065;28;20154;-66
2022/05/08 05:44:19;;;;;;;17.58;8.25;;;13.50;99.50;;;;;;4992978;28;20046;-65
2022/05/08 05:49:30;;;;;;;18.92;8.75;;;13.60;99.20;;;;;;4993903;28;20490;-66
2022/05/08 05:51:57;;;;;;;18.02;7.43;;;13.60;98.90;;;;;;4994111;28;20414;-66
2022/05/08 05:54:23;;;;;;;18.55;7.68;;;13.70;98.60;;;;;;4992648;28;20184;-66
2022/05/08 05:56:49;;;;;;;15.20;7.45;;;13.70;98.30;;;;;;4993818;28;20488;-66
2022/05/08 05:59:15;;;;;;;18.92;7.15;;;13.70;98.20;;;;;;4993804;28;20075;-66
2022/05/08 06:01:42;;;;;;;19.80;7.63;;;13.80;98.10;;;;;;4993736;28;20034;-66
2022/05/08 06:04:09;;;;;;;17.08;6.95;;;13.80;97.50;;;;;;4993889;28;20056;-66
2022/05/08 06:06:35;;;;;;;24.27;6.97;;;13.80;97.40;;;;;;4993820;28;20100;-66
2022/05/08 06:09:01;;;;;;;17.02;6.40;;;13.80;97.10;;;;;;4993869;28;20475;-65
2022/05/08 06:11:27;;;;;;;20.60;7.03;;;13.80;96.60;;;;;;4993481;28;20395;-66
2022/05/08 06:13:53;;;;;;;17.42;6.38;;;13.70;96.50;;;;;;4993510;28;20031;-66
2022/05/08 06:16:19;;;;;;;18.30;6.60;;;13.80;96.70;;;;;;4993106;28;20467;-66
2022/05/08 06:18:45;;;;;;;19.23;6.30;;;13.80;96.90;;;;;;4993225;28;20031;-66
2022/05/08 06:21:11;;;;;;;19.02;6.63;;;13.80;97.20;;;;;;4993558;28;20402;-66
2022/05/08 06:23:38;;;;;;;18.52;5.70;;;13.80;97.00;;;;;;4993145;28;20034;-66
2022/05/08 06:26:08;;;;;;;18.35;6.22;;;13.90;96.80;;;;;;4993290;28;20483;-65
2022/05/08 06:28:34;;;;;;;16.67;5.50;;;13.90;96.60;;;;;;4991736;28;20037;-66
2022/05/08 06:31:01;;;;;;;14.75;5.40;;;13.90;96.30;;;;;;4992984;28;20034;-66
2022/05/08 06:33:27;;;;;;;20.98;6.20;;;13.90;96.10;;;;;;4991662;28;20630;-65
2022/05/08 06:35:55;;;;;;;21.50;6.30;;;13.90;96.30;;;;;;4993007;28;20026;-66
2022/05/08 06:38:21;;;;;;;20.15;6.45;;;13.90;96.40;;;;;;4993134;28;20338;-66
2022/05/08 06:40:47;;;;;;;18.33;5.80;;;14.00;96.20;;;;;;4991730;28;20101;-66
2022/05/08 06:43:13;;;;;;;16.50;5.63;;;14.00;96.20;;;;;;4992975;28;20054;-66
2022/05/08 06:45:39;;;;;;;15.38;5.93;;;14.10;96.10;;;;;;4991777;28;20048;-66
2022/05/08 06:48:06;;;;;;;20.80;6.55;;;14.10;96.00;;;;;;4992641;28;20026;-66
2022/05/08 06:50:33;;;;;;;18.40;6.15;;;14.20;95.50;;;;;;4992825;28;20030;-66
2022/05/08 06:53:00;;;;;;;18.90;5.65;;;14.20;95.70;;;;;;4992477;28;20471;-66
2022/05/08 06:55:26;;;;;;;16.45;5.78;;;14.20;95.10;;;;;;4992719;28;20034;-65
2022/05/08 06:57:52;;;;;;;18.95;5.03;;;14.30;94.80;;;;;;4992771;28;20476;-65
2022/05/08 07:03:06;;;;;;;19.30;4.65;;;14.20;94.10;;;;;;4992444;28;20514;-66
2022/05/08 07:05:33;;;;;;;16.10;4.95;;;14.20;93.80;;;;;;4992511;28;20053;-66
2022/05/08 07:08:00;;;;;;;16.08;4.30;;;14.20;93.90;;;;;;4992175;28;20054;-66
2022/05/08 07:10:26;;;;;;;16.85;4.97;;;14.10;94.10;;;;;;4992460;28;20054;-65
2022/05/08 07:12:52;;;;;;;16.08;4.78;;;14.10;94.30;;;;;;4992160;28;20447;-66
2022/05/08 07:15:18;;;;;;;17.35;4.93;;;14.10;94.40;;;;;;4992508;28;20109;-66
2022/05/08 07:17:44;;;;;;;16.08;4.10;;;14.20;94.10;;;;;;4992112;28;20026;-66
2022/05/08 07:20:11;;;;;;;14.48;4.50;;;14.20;94.00;;;;;;4992369;28;20034;-66
2022/05/08 07:22:37;;;;;;;21.83;5.22;;;14.30;93.80;;;;;;4991754;28;20033;-65
2022/05/08 07:25:03;;;;;;;14.90;4.60;;;14.30;93.40;;;;;;4992224;28;20022;-66
2022/05/08 07:27:31;;;;;;;16.70;4.32;;;14.20;93.00;;;;;;4991897;28;20394;-65
2022/05/08 07:29:57;;;;;;;13.30;3.92;;;14.20;92.90;;;;;;4992236;28;20113;-65
2022/05/08 07:32:24;;;;;;;20.70;5.00;;;14.30;93.10;;;;;;4992048;28;20110;-66
2022/05/08 07:37:35;;;;;;;14.98;4.10;;;14.10;92.60;;;;;;4991748;28;20054;-67
2022/05/08 07:40:04;;;;;;;14.07;3.70;;;14.20;93.10;;;;;;4992011;28;20038;-66
2022/05/08 07:42:30;;;;;;;17.45;4.85;;;14.20;93.10;;;;;;4991776;28;20034;-65
2022/05/08 07:44:56;;;;;;;15.73;3.70;;;14.20;93.00;;;;;;4991829;28;20089;-65
2022/05/08 07:47:22;;;;;;;19.70;4.60;;;14.20;93.20;;;;;;4991629;28;20053;-65
2022/05/08 07:49:48;;;;;;;13.15;3.63;;;14.20;93.30;;;;;;4991921;28;20033;-65
2022/05/08 07:52:14;;;;;;;17.85;4.55;;;14.20;93.50;;;;;;4991624;28;20121;-65
2022/05/08 07:54:40;;;;;;;15.68;3.92;;;14.20;93.50;;;;;;4991799;28;20022;-65
2022/05/08 07:57:06;;;;;;;15.95;3.80;;;14.20;93.70;;;;;;4991835;28;20030;-65
2022/05/08 07:59:32;;;;;;;14.65;4.55;;;14.30;93.60;;;;;;4992189;28;20113;-66
2022/05/08 08:01:58;;;;;;;15.38;4.07;;;14.30;93.70;;;;;;4991766;28;20031;-65
2022/05/08 08:04:24;;;;;;;12.93;3.63;;;14.40;93.00;;;;;;4991724;28;20532;-65
2022/05/08 08:06:50;;;;;;;14.48;3.67;;;14.40;93.00;;;;;;4991102;28;20030;-66
2022/05/08 08:09:16;;;;;;;17.65;4.20;;;14.50;93.00;;;;;;4991800;28;20419;-66
2022/05/08 08:11:43;;;;;;;14.85;3.78;;;14.50;92.90;;;;;;4991658;28;20027;-66
2022/05/08 08:14:09;;;;;;;14.73;4.18;;;14.50;92.80;;;;;;4991508;28;20026;-66
2022/05/08 08:16:35;;;;;;;16.38;3.70;;;14.50;92.80;;;;;;4991229;28;20480;-66
2022/05/08 08:19:01;;;;;;;19.73;4.38;;;14.60;92.90;;;;;;4991565;28;20026;-65
2022/05/08 08:21:27;;;;;;;13.23;4.15;;;14.60;92.70;;;;;;4991477;28;20427;-65
2022/05/08 08:23:53;;;;;;;15.57;3.97;;;14.70;92.80;;;;;;4991669;28;20035;-65
2022/05/08 08:26:19;;;;;;;13.88;3.60;;;14.60;92.30;;;;;;4991304;28;20554;-66
2022/05/08 08:28:45;;;;;;;14.95;3.88;;;14.70;92.30;;;;;;4991161;28;20026;-66
2022/05/08 08:31:11;;;;;;;12.98;3.47;;;14.70;92.40;;;;;;4990140;28;20077;-66
2022/05/08 08:33:42;;;;;;;14.85;3.55;;;14.70;92.00;;;;;;4990183;28;20040;-66
2022/05/08 08:36:09;;;;;;;11.95;3.17;;;14.80;91.70;;;;;;4993623;28;20031;-66
2022/05/08 08:38:36;;;;;;;17.13;3.30;;;14.90;91.50;;;;;;4995055;28;20077;-66
2022/05/08 08:41:04;;;;;;;17.20;3.08;;;14.90;91.20;;;;;;4995332;28;20124;-66
2022/05/08 08:49:24;;;;;;;13.68;3.03;;;15.10;91.20;;;;;;4995097;28;20049;-66
2022/05/08 08:51:51;;;;;;;15.07;3.83;;;15.20;91.30;;;;;;4994888;28;20108;-66
2022/05/08 08:54:21;;;;;;;14.23;3.63;;;15.20;91.30;;;;;;4994764;28;20030;-66
2022/05/08 08:56:48;;;;;;;16.77;3.92;;;15.20;91.50;;;;;;4994571;28;20038;-66
2022/05/08 08:59:14;;;;;;;13.18;3.78;;;15.30;91.50;;;;;;4994639;28;20034;-66
2022/05/08 09:01:44;;;;;;;16.55;4.28;;;15.40;91.70;;;;;;4994765;28;20093;-66
2022/05/08 09:04:11;;;;;;;13.38;3.80;;;15.20;91.00;;;;;;4994842;28;20038;-66
2022/05/08 09:06:45;;;;;;;13.05;3.75;;;15.20;91.40;;;;;;4994474;28;20034;-65
2022/05/08 09:09:27;;;;;;;11.88;3.53;;;15.20;91.90;;;;;;4994565;28;20034;-66
2022/05/08 09:11:54;;;;;;;14.48;3.40;;;15.30;91.80;;;;;;4994636;28;20034;-66
2022/05/08 09:14:36;;;;;;;13.88;4.07;;;15.30;91.60;;;;;;4994611;28;20034;-66
2022/05/08 09:17:05;;;;;;;12.68;3.70;;;15.20;91.60;;;;;;4994456;28;20077;-66
2022/05/08 09:19:38;;;;;;;16.05;3.92;;;15.20;91.80;;;;;;4994458;28;20038;-66
2022/05/08 09:22:09;;;;;;;15.93;4.30;;;15.30;92.00;;;;;;4994337;28;20038;-66
2022/05/08 09:24:53;;;;;;;15.88;3.70;;;15.40;92.10;;;;;;4994107;28;20061;-66
2022/05/08 09:27:19;;;;;;;17.48;4.78;;;15.40;92.30;;;;;;4994432;28;20054;-66
2022/05/08 09:29:46;;;;;;;13.40;3.88;;;15.40;91.80;;;;;;4994117;28;20040;-65
2022/05/08 09:32:34;;;;;;;12.38;3.33;;;15.40;91.80;;;;;;4994548;28;20064;-66
2022/05/08 09:35:01;;;;;;;11.73;3.70;;;15.50;92.30;;;;;;4994287;28;20030;-66
2022/05/08 09:37:28;;;;;;;18.13;4.13;;;15.50;92.10;;;;;;4992747;28;20041;-66
2022/05/08 09:40:19;;;;;;;17.13;4.28;;;15.40;91.30;;;;;;4994042;28;20041;-66
2022/05/08 09:42:46;;;;;;;12.82;4.05;;;15.40;91.60;;;;;;4993775;28;20113;-67
2022/05/08 09:45:13;;;;;;;15.15;3.85;;;15.50;91.80;;;;;;4993970;28;20030;-66
2022/05/08 09:47:48;;;;;;;13.10;3.90;;;15.40;91.80;;;;;;4993298;28;20160;-66
2022/05/08 09:50:16;;;;;;;14.25;3.83;;;15.50;91.80;;;;;;4994054;28;20041;-66
2022/05/08 09:52:43;;;;;;;11.48;3.35;;;15.50;91.40;;;;;;4993823;28;20036;-66
2022/05/08 09:55:13;;;;;;;10.27;3.08;;;15.50;91.30;;;;;;4993740;28;20108;-66
2022/05/08 09:57:39;;;;;;;17.27;4.53;;;15.40;90.60;;;;;;4993515;28;20030;-66
2022/05/08 10:00:07;;;;;;;14.57;3.72;;;15.40;91.40;;;;;;4993922;28;20038;-66
2022/05/08 10:02:38;;;;;;;15.02;4.57;;;15.40;91.30;;;;;;4992688;28;20030;-66
2022/05/08 10:05:05;;;;;;;12.57;3.67;;;15.40;91.10;;;;;;4993632;28;20038;-66
2022/05/08 10:07:36;;;;;;;13.63;3.45;;;15.40;91.10;;;;;;4993702;28;20041;-66
2022/05/08 10:15:32;;;;;;;14.90;3.50;;;15.30;90.90;;;;;;4993332;28;20037;-66
2022/05/08 10:18:27;;;;;;;15.07;3.85;;;15.30;91.40;;;;;;4993109;28;20038;-66
2022/05/08 10:21:01;;;;;;;10.07;3.33;;;15.30;91.30;;;;;;4993349;28;20038;-66
2022/05/08 10:23:47;;;;;;;14.15;4.45;;;15.30;91.40;;;;;;4993220;28;20031;-65
2022/05/08 10:26:22;;;;;;;13.85;3.88;;;15.40;91.80;;;;;;4993270;28;20058;-66
2022/05/08 10:29:03;;;;;;;13.88;3.53;;;15.40;91.80;;;;;;4993021;28;20575;-66
2022/05/08 10:31:50;;;;;;;14.48;3.30;;;15.50;91.50;;;;;;4993230;28;20026;-67
2022/05/08 10:34:32;;;;;;;13.77;4.07;;;15.50;91.00;;;;;;4993260;28;20030;-66
2022/05/08 10:37:13;;;;;;;13.25;3.60;;;15.60;90.70;;;;;;4992995;28;20125;-66
2022/05/08 10:39:43;;;;;;;11.73;4.22;;;15.60;90.60;;;;;;4993220;28;20287;-66
2022/05/08 10:42:27;;;;;;;13.57;4.25;;;15.60;90.60;;;;;;4992992;28;20034;-66
2022/05/08 10:44:54;;;;;;;14.55;3.80;;;15.60;90.50;;;;;;4993055;28;20034;-66
2022/05/08 10:47:32;;;;;;;13.45;3.25;;;15.70;90.20;;;;;;4992581;28;20034;-66
2022/05/08 10:50:04;;;;;;;11.30;3.60;;;15.60;90.30;;;;;;4993152;28;20062;-66
2022/05/08 10:52:32;;;;;;;12.15;3.50;;;15.60;89.90;;;;;;4992705;28;20077;-66
2022/05/08 10:55:04;;;;;;;13.52;3.45;;;15.70;89.70;;;;;;4992744;28;20018;-66
2022/05/08 10:57:30;;;;;;;11.23;3.65;;;15.70;89.50;;;;;;4990501;28;20323;-66
2022/05/08 10:59:57;;;;;;;20.40;3.30;;;15.70;88.50;;;;;;4992759;28;20054;-65
2022/05/08 11:02:43;;;;;;;10.88;2.95;;;15.90;89.10;;;;;;4992783;28;20030;-65
2022/05/08 11:05:26;;;;;;;12.52;3.25;;;15.90;87.70;;;;;;4993267;28;20041;-66
2022/05/08 11:08:11;;;;;;;10.73;2.90;;;15.90;87.30;;;;;;4992093;28;20037;-66
2022/05/08 11:10:42;;;;;;;13.38;3.65;;;16.00;86.70;;;;;;4992545;28;20029;-66
2022/05/08 11:13:13;;;;;;;10.68;3.13;;;16.00;86.40;;;;;;4992580;28;20022;-66
2022/05/08 11:15:43;;;;;;;11.20;3.25;;;16.10;85.60;;;;;;4992544;28;20101;-67
2022/05/08 11:18:15;;;;;;;10.68;2.70;;;16.10;84.70;;;;;;4992179;28;20034;-67
2022/05/08 11:20:44;;;;;;;12.10;3.13;;;16.20;84.80;;;;;;4992378;28;20030;-66
2022/05/08 11:23:12;;;;;;;15.15;4.35;;;16.20;83.80;;;;;;4990955;28;20030;-66
2022/05/08 11:25:38;;;;;;;9.60;3.10;;;16.20;83.80;;;;;;4992264;28;20113;-66
2022/05/08 11:28:05;;;;;;;11.50;2.53;;;16.20;83.40;;;;;;4991959;28;20062;-66
2022/05/08 11:30:38;;;;;;;7.43;2.20;;;16.30;83.30;;;;;;4992189;28;20054;-66
2022/05/08 11:36:04;;;;;;;8.65;2.70;;;16.30;82.10;;;;;;4991092;28;20026;-66
2022/05/08 11:38:51;;;;;;;15.15;3.75;;;16.30;82.10;;;;;;4992071;28;20053;-66
2022/05/08 11:41:21;;;;;;;10.38;3.08;;;16.30;82.70;;;;;;4992046;28;20042;-66
2022/05/08 11:44:13;;;;;;;9.32;2.90;;;16.30;82.30;;;;;;4992082;28;20042;-66
2022/05/08 11:46:55;;;;;;;12.30;3.03;;;16.40;82.90;;;;;;4985957;28;20046;-66
2022/05/08 11:49:24;;;;;;;11.32;2.72;;;16.40;82.30;;;;;;4992059;28;20029;-66
2022/05/08 11:51:53;;;;;;;11.35;2.47;;;16.50;81.20;;;;;;5002548;23;20434;-71
2022/05/08 11:54:32;;;;;;;11.30;2.90;;;16.50;82.50;;;;;;4991702;28;20039;-71
2022/05/08 11:57:20;;;;;;;11.23;3.78;;;16.50;81.80;;;;;;4991522;28;20379;-71
2022/05/08 11:59:50;;;;;;;11.90;2.85;;;16.50;81.50;;;;;;4991623;28;20041;-71
2022/05/08 12:02:17;;;;;;;9.43;2.63;;;16.50;81.80;;;;;;4991882;28;20376;-71
2022/05/08 12:04:59;;;;;;;11.20;2.45;;;16.50;81.20;;;;;;4974068;28;20038;-71
2022/05/08 12:07:25;;;;;;;8.13;2.35;;;16.60;81.50;;;;;;4973766;28;20525;-71
2022/05/08 12:09:54;;;;;;;7.38;2.40;;;16.60;81.70;;;;;;4994931;28;20022;-71
2022/05/08 12:12:37;;;;;;;7.85;2.55;;;16.70;80.40;;;;;;4997912;28;20031;-71
2022/05/08 12:15:09;;;;;;;10.27;3.28;;;16.80;80.60;;;;;;4998179;28;20030;-71
2022/05/08 12:17:44;;;;;;;11.75;3.22;;;16.80;80.70;;;;;;4997829;28;20031;-71
2022/05/08 12:20:28;;;;;;;10.80;2.88;;;16.80;80.30;;;;;;4998336;28;20043;-71
2022/05/08 12:23:10;;;;;;;8.75;2.70;;;16.90;81.00;;;;;;4997927;28;20102;-71
2022/05/08 12:25:38;;;;;;;12.75;2.53;;;16.90;80.40;;;;;;4998017;28;20034;-71
2022/05/08 12:28:05;;;;;;;6.55;2.17;;;17.00;79.80;;;;;;4997943;28;20458;-71
2022/05/08 12:30:31;;;;;;;6.78;2.10;;;17.00;80.10;;;;;;4997934;28;20391;-71
2022/05/08 12:32:57;;;;;;;7.32;2.20;;;17.10;80.60;;;;;;4997754;28;20033;-71
2022/05/08 12:35:23;;;;;;;5.45;1.70;;;17.10;80.40;;;;;;4997786;28;20023;-71
2022/05/08 12:37:50;;;;;;;9.05;2.38;;;17.10;80.00;;;;;;4997817;28;20391;-71
2022/05/08 12:40:17;;;;;;;12.07;2.50;;;17.20;79.70;;;;;;4997673;28;20030;-71
2022/05/08 12:42:47;;;;;;;12.13;2.72;;;17.20;79.30;;;;;;4997818;28;20036;-71
2022/05/08 12:45:13;;;;;;;9.65;2.40;;;17.30;78.80;;;;;;4997776;28;20030;-71
2022/05/08 12:47:39;;;;;;;6.57;2.35;;;17.30;79.00;;;;;;4979862;28;20092;-71
2022/05/08 12:50:06;;;;;;;7.25;2.13;;;17.30;78.10;;;;;;4997561;28;20035;-71
2022/05/08 12:52:35;;;;;;;8.15;2.05;;;17.30;79.00;;;;;;4997785;28;20121;-71
2022/05/08 12:55:02;;;;;;;7.05;2.60;;;17.40;78.20;;;;;;4980117;28;20478;-71
2022/05/08 13:00:12;;;;;;;7.63;1.95;;;17.30;77.70;;;;;;4997640;28;20116;-71
2022/05/08 13:02:38;;;;;;;8.30;2.10;;;17.40;78.40;;;;;;4997684;28;20117;-71
2022/05/08 13:05:04;;;;;;;9.85;2.10;;;17.30;78.00;;;;;;4997481;28;20463;-71
2022/05/08 13:07:30;;;;;;;6.43;2.03;;;17.40;78.40;;;;;;4997265;28;20038;-71
2022/05/08 13:09:56;;;;;;;7.38;2.35;;;17.40;78.70;;;;;;4997611;28;20379;-71
2022/05/08 13:12:23;;;;;;;6.72;1.90;;;17.50;78.90;;;;;;4997329;28;20488;-71
2022/05/08 13:14:52;;;;;;;9.73;3.08;;;17.50;79.40;;;;;;4980356;28;20450;-71
2022/05/08 13:17:18;;;;;;;7.38;2.70;;;17.50;79.60;;;;;;4997390;28;20125;-71
2022/05/08 13:19:44;;;;;;;7.20;2.45;;;17.60;79.70;;;;;;4997416;28;20058;-71